| time (UTC) | temp C | wind direction | speed KPH | gust KPH | rain 1hr cm | rain 24hr cm | rain mn cm | humidity % | barometer mb |
| 20260507080203 | 12 | 13 | 0.0 | 4.8 | 0.41 | 0.89 | 0.43 | 97 | 1006.9 |
| 20260507075204 | 12 | 287 | 0.0 | 4.8 | 0.38 | 0.89 | 0.41 | 97 | 1007.2 |
| 20260507074232 | 12 | 153 | 0.0 | 4.8 | 0.28 | 0.76 | 0.30 | 97 | 1007.0 |
| 20260507074202 | 12 | 153 | 0.0 | 4.8 | 0.25 | 0.69 | 0.25 | 97 | 1007.1 |
| 20260507073204 | 13 | 270 | 4.8 | 9.7 | 0.08 | 0.56 | 0.10 | 97 | 1006.9 |
| 20260507072204 | 13 | 1 | 0.0 | 0.0 | 0.03 | 0.53 | 0.05 | 97 | 1006.3 |
| 20260507071202 | 13 | 1 | 0.0 | 0.0 | 0.00 | 0.51 | 0.03 | 97 | 1005.9 |
| 20260507070204 | 13 | 1 | 0.0 | 0.0 | 0.00 | 0.51 | 0.03 | 98 | 1006.0 |
| 20260507065233 | 13 | 1 | 0.0 | 0.0 | 0.00 | 0.51 | 0.03 | 97 | 1005.7 |
| 20260507065202 | 13 | 1 | 0.0 | 0.0 | 0.00 | 0.51 | 0.03 | 97 | 1005.7 |
| 20260507064203 | 13 | 1 | 0.0 | 0.0 | 0.00 | 0.51 | 0.03 | 97 | 1005.9 |
| 20260507063203 | 13 | 1 | 0.0 | 3.2 | 0.00 | 0.51 | 0.03 | 97 | 1005.8 |
| 20260507062203 | 13 | 231 | 0.0 | 0.0 | 0.00 | 0.51 | 0.03 | 97 | 1005.9 |
| 20260507061203 | 13 | 231 | 0.0 | 0.0 | 0.00 | 0.51 | 0.03 | 97 | 1006.0 |
| 20260507060202 | 13 | 231 | 0.0 | 0.0 | 0.00 | 0.51 | 0.03 | 97 | 1006.0 |
| 20260507055202 | 13 | 231 | 0.0 | 0.0 | 0.00 | 0.51 | 0.03 | 97 | 1006.1 |
| 20260507054203 | 13 | 231 | 0.0 | 0.0 | 0.00 | 0.51 | 0.03 | 97 | 1006.7 |
| 20260507053233 | 13 | 270 | 0.0 | 0.0 | 0.00 | 0.51 | 0.03 | 97 | 1006.7 |
| 20260507053202 | 13 | 270 | 0.0 | 0.0 | 0.00 | 0.51 | 0.03 | 97 | 1006.7 |
| 20260507052233 | 13 | 270 | 0.0 | 0.0 | 0.00 | 0.51 | 0.03 | 97 | 1006.8 |
| 20260507052202 | 13 | 270 | 0.0 | 0.0 | 0.00 | 0.51 | 0.03 | 97 | 1006.8 |
| 20260507051204 | 13 | 270 | 0.0 | 1.6 | 0.03 | 0.51 | 0.03 | 97 | 1006.7 |
| 20260507050204 | 13 | 240 | 3.2 | 3.2 | 0.03 | 0.51 | 0.03 | 97 | 1006.8 |
| 20260507045204 | 13 | 267 | 3.2 | 4.8 | 0.03 | 0.51 | 0.03 | 97 | 1007.1 |
| 20260507044203 | 13 | 246 | 1.6 | 4.8 | 0.03 | 0.51 | 0.03 | 97 | 1006.9 |
| 20260507043203 | 12 | 300 | 4.8 | 6.4 | 0.03 | 0.51 | 0.03 | 97 | 1006.9 |
| 20260507042203 | 13 | 262 | 6.4 | 6.4 | 0.03 | 0.51 | 0.03 | 97 | 1006.8 |
| 20260507041203 | 13 | 236 | 3.2 | 8.0 | 0.00 | 0.48 | 0.00 | 97 | 1006.8 |
| 20260507040203 | 13 | 280 | 1.6 | 3.2 | 0.00 | 0.48 | 0.00 | 97 | 1006.8 |
| 20260507035202 | 13 | 271 | 3.2 | 6.4 | 0.00 | 0.48 | 0.48 | 97 | 1007.0 |
| 20260507034202 | 13 | 236 | 4.8 | 6.4 | 0.00 | 0.48 | 0.48 | 97 | 1007.0 |
| 20260507033204 | 13 | 260 | 4.8 | 6.4 | 0.00 | 0.48 | 0.48 | 97 | 1007.1 |
| 20260507032443 | 13 | 256 | 3.2 | 4.8 | 0.00 | 0.48 | 0.48 | 97 | 1007.1 |
| 20260507032204 | 13 | 256 | 3.2 | 4.8 | 0.00 | 0.48 | 0.48 | 97 | 1007.1 |
| 20260507031233 | 13 | 242 | 4.8 | 8.0 | 0.00 | 0.48 | 0.48 | 97 | 1007.2 |
| 20260507031202 | 13 | 242 | 4.8 | 8.0 | 0.00 | 0.48 | 0.48 | 97 | 1007.2 |
| 20260507030203 | 13 | 225 | 1.6 | 8.0 | 0.00 | 0.48 | 0.48 | 97 | 1007.1 |
| 20260507025203 | 13 | 262 | 6.4 | 8.0 | 0.00 | 0.48 | 0.48 | 97 | 1006.9 |
| 20260507024203 | 13 | 226 | 8.0 | 11.3 | 0.00 | 0.48 | 0.48 | 97 | 1007.1 |
| 20260507023203 | 13 | 249 | 6.4 | 8.0 | 0.00 | 0.48 | 0.48 | 97 | 1007.3 |
| 20260507022202 | 13 | 281 | 3.2 | 8.0 | 0.00 | 0.48 | 0.48 | 97 | 1007.3 |
| 20260507021203 | 13 | 269 | 4.8 | 6.4 | 0.00 | 0.48 | 0.48 | 97 | 1007.4 |
| 20260507020203 | 13 | 233 | 8.0 | 11.3 | 0.00 | 0.48 | 0.48 | 97 | 1007.3 |
| 20260507015203 | 13 | 239 | 6.4 | 8.0 | 0.00 | 0.48 | 0.48 | 97 | 1007.2 |
| 20260507014202 | 13 | 263 | 6.4 | 9.7 | 0.00 | 0.48 | 0.48 | 97 | 1007.3 |
| 20260507013204 | 13 | 253 | 6.4 | 9.7 | 0.00 | 0.48 | 0.48 | 97 | 1007.5 |
| 20260507012203 | 12 | 260 | 9.7 | 9.7 | 0.00 | 0.48 | 0.48 | 97 | 1007.6 |
| 20260507011204 | 13 | 228 | 4.8 | 8.0 | 0.00 | 0.48 | 0.48 | 97 | 1007.6 |
| 20260507010202 | 13 | 263 | 6.4 | 11.3 | 0.00 | 0.48 | 0.48 | 97 | 1007.8 |
| 20260507005234 | 12 | 217 | 3.2 | 8.0 | 0.00 | 0.48 | 0.48 | 97 | 1007.8 |
| 20260507005203 | 12 | 217 | 3.2 | 8.0 | 0.00 | 0.48 | 0.48 | 97 | 1007.8 |
| 20260507004202 | 13 | 264 | 8.0 | 12.9 | 0.00 | 0.48 | 0.48 | 97 | 1007.7 |
| 20260507003203 | 13 | 238 | 4.8 | 11.3 | 0.00 | 0.48 | 0.48 | 97 | 1007.7 |
| 20260507002203 | 13 | 240 | 11.3 | 11.3 | 0.00 | 0.48 | 0.48 | 97 | 1007.5 |
| 20260507001202 | 12 | 302 | 4.8 | 9.7 | 0.00 | 0.48 | 0.48 | 97 | 1007.5 |
| 20260507000204 | 12 | 253 | 4.8 | 9.7 | 0.03 | 0.48 | 0.48 | 97 | 1007.4 |
| 20260506235204 | 13 | 202 | 4.8 | 12.9 | 0.03 | 0.48 | 0.48 | 97 | 1007.5 |
| 20260506234232 | 12 | 319 | 8.0 | 14.5 | 0.03 | 0.48 | 0.48 | 97 | 1007.5 |
| 20260506234202 | 12 | 259 | 9.7 | 14.5 | 0.03 | 0.48 | 0.48 | 97 | 1007.5 |
| 20260506233233 | 12 | 218 | 4.8 | 11.3 | 0.03 | 0.48 | 0.48 | 97 | 1007.4 |
| 20260506233203 | 12 | 246 | 9.7 | 12.9 | 0.03 | 0.48 | 0.48 | 97 | 1007.4 |
| 20260506232204 | 12 | 253 | 11.3 | 11.3 | 0.10 | 0.48 | 0.48 | 97 | 1007.4 |
| 20260506231204 | 12 | 260 | 8.0 | 14.5 | 0.13 | 0.48 | 0.48 | 97 | 1007.4 |
| 20260506230204 | 13 | 236 | 8.0 | 12.9 | 0.15 | 0.46 | 0.46 | 97 | 1007.4 |
| 20260506225203 | 12 | 276 | 8.0 | 16.1 | 0.18 | 0.46 | 0.46 | 97 | 1007.4 |
| 20260506224203 | 12 | 231 | 8.0 | 12.9 | 0.20 | 0.46 | 0.46 | 96 | 1007.2 |
| 20260506223204 | 13 | 252 | 8.0 | 11.3 | 0.23 | 0.46 | 0.46 | 96 | 1007.3 |
| 20260506222204 | 12 | 239 | 9.7 | 12.9 | 0.23 | 0.41 | 0.43 | 96 | 1007.3 |
| 20260506221203 | 12 | 211 | 4.8 | 17.7 | 0.18 | 0.36 | 0.36 | 96 | 1007.4 |
| 20260506220203 | 12 | 232 | 6.4 | 9.7 | 0.13 | 0.30 | 0.30 | 96 | 1007.5 |
| 20260506215234 | 13 | 260 | 4.8 | 12.9 | 0.10 | 0.28 | 0.28 | 96 | 1007.5 |
| 20260506215202 | 13 | 243 | 8.0 | 12.9 | 0.10 | 0.28 | 0.28 | 95 | 1007.6 |
| 20260506214204 | 13 | 242 | 8.0 | 14.5 | 0.08 | 0.25 | 0.25 | 95 | 1007.8 |
| 20260506213233 | 13 | 217 | 8.0 | 9.7 | 0.08 | 0.23 | 0.23 | 95 | 1007.8 |
| 20260506213202 | 13 | 257 | 6.4 | 11.3 | 0.08 | 0.23 | 0.23 | 95 | 1007.8 |
| 20260506212203 | 13 | 246 | 4.8 | 17.7 | 0.05 | 0.20 | 0.20 | 94 | 1008.0 |
| 20260506211204 | 13 | 239 | 6.4 | 12.9 | 0.05 | 0.20 | 0.20 | 94 | 1008.0 |
| 20260506210202 | 13 | 174 | 6.4 | 14.5 | 0.03 | 0.18 | 0.18 | 93 | 1008.1 |
| 20260506205203 | 13 | 221 | 11.3 | 17.7 | 0.05 | 0.18 | 0.18 | 95 | 1008.0 |
| 20260506204202 | 13 | 235 | 9.7 | 12.9 | 0.05 | 0.18 | 0.18 | 94 | 1008.1 |
| 20260506203204 | 13 | 225 | 9.7 | 12.9 | 0.05 | 0.15 | 0.18 | 93 | 1008.2 |
| 20260506202204 | 13 | 249 | 11.3 | 14.5 | 0.08 | 0.15 | 0.15 | 93 | 1008.2 |
| 20260506201203 | 13 | 263 | 6.4 | 16.1 | 0.15 | 0.15 | 0.15 | 93 | 1008.4 |
| 20260506200203 | 13 | 253 | 8.0 | 19.3 | 0.15 | 0.15 | 0.15 | 93 | 1008.4 |
| 20260506195233 | 13 | 240 | 11.3 | 16.1 | 0.13 | 0.13 | 0.13 | 92 | 1008.5 |
| 20260506195202 | 13 | 240 | 11.3 | 16.1 | 0.13 | 0.13 | 0.13 | 92 | 1008.5 |
| 20260506194204 | 14 | 202 | 6.4 | 16.1 | 0.13 | 0.13 | 0.13 | 92 | 1008.6 |
| 20260506193203 | 14 | 240 | 9.7 | 12.9 | 0.13 | 0.13 | 0.13 | 92 | 1008.6 |
| 20260506192240 | 14 | 240 | 6.4 | 11.3 | 0.08 | 0.08 | 0.08 | 90 | 1008.7 |
| 20260506192204 | 14 | 240 | 6.4 | 11.3 | 0.08 | 0.08 | 0.08 | 90 | 1008.7 |
| 20260506191233 | 15 | 248 | 6.4 | 20.9 | 0.03 | 0.03 | 0.03 | 88 | 1008.9 |
| 20260506191202 | 15 | 248 | 6.4 | 20.9 | 0.03 | 0.03 | 0.03 | 88 | 1008.9 |
| 20260506190203 | 15 | 233 | 11.3 | 22.5 | 0.00 | 0.00 | 0.00 | 85 | 1009.0 |
| 20260506185233 | 15 | 245 | 12.9 | 20.9 | 0.00 | 0.00 | 0.00 | 80 | 1009.1 |
| 20260506185202 | 15 | 245 | 12.9 | 20.9 | 0.00 | 0.00 | 0.00 | 80 | 1009.1 |
| 20260506184202 | 15 | 262 | 8.0 | 17.7 | 0.00 | 0.00 | 0.00 | 76 | 1009.2 |
| 20260506183202 | 16 | 225 | 8.0 | 19.3 | 0.00 | 0.00 | 0.00 | 76 | 1009.4 |
| 20260506182203 | 16 | 283 | 4.8 | 20.9 | 0.00 | 0.00 | 0.00 | 74 | 1009.4 |
| 20260506181202 | 16 | 200 | 8.0 | 24.1 | 0.00 | 0.00 | 0.00 | 72 | 1009.5 |
| 20260506180204 | 16 | 229 | 12.9 | 16.1 | 0.00 | 0.00 | 0.00 | 74 | 1009.5 |
| 20260506175203 | 16 | 243 | 12.9 | 19.3 | 0.00 | 0.00 | 0.00 | 74 | 1009.6 |
| 20260506174202 | 17 | 228 | 6.4 | 16.1 | 0.00 | 0.00 | 0.00 | 71 | 1009.9 |
| 20260506173203 | 17 | 284 | 6.4 | 16.1 | 0.00 | 0.00 | 0.00 | 71 | 1009.8 |
| 20260506172202 | 17 | 229 | 6.4 | 14.5 | 0.00 | 0.00 | 0.00 | 71 | 1010.2 |
| 20260506171203 | 17 | 246 | 11.3 | 22.5 | 0.00 | 0.00 | 0.00 | 71 | 1010.1 |
| 20260506170203 | 17 | 274 | 9.7 | 17.7 | 0.00 | 0.00 | 0.00 | 70 | 1010.0 |
| 20260506165204 | 17 | 271 | 9.7 | 17.7 | 0.00 | 0.00 | 0.00 | 70 | 1010.1 |
| 20260506164203 | 17 | 198 | 11.3 | 20.9 | 0.00 | 0.00 | 0.00 | 70 | 1010.3 |
| 20260506163204 | 17 | 255 | 9.7 | 17.7 | 0.00 | 0.00 | 0.00 | 72 | 1010.6 |
| 20260506162204 | 17 | 253 | 8.0 | 17.7 | 0.00 | 0.00 | 0.00 | 74 | 1010.7 |
| 20260506161203 | 16 | 208 | 9.7 | 24.1 | 0.00 | 0.00 | 0.00 | 73 | 1010.8 |
| 20260506160203 | 17 | 236 | 9.7 | 19.3 | 0.00 | 0.00 | 0.00 | 72 | 1011.0 |
| 20260506155203 | 17 | 245 | 14.5 | 17.7 | 0.00 | 0.00 | 0.00 | 71 | 1011.2 |
| 20260506154202 | 17 | 208 | 9.7 | 17.7 | 0.00 | 0.00 | 0.00 | 67 | 1011.0 |
| 20260506153203 | 18 | 233 | 14.5 | 22.5 | 0.00 | 0.00 | 0.00 | 66 | 1010.8 |
| 20260506152234 | 18 | 225 | 22.5 | 24.1 | 0.00 | 0.00 | 0.00 | 68 | 1011.2 |
| 20260506152203 | 18 | 225 | 22.5 | 24.1 | 0.00 | 0.00 | 0.00 | 68 | 1011.2 |
| 20260506151203 | 17 | 271 | 6.4 | 19.3 | 0.00 | 0.00 | 0.00 | 68 | 1011.2 |
| 20260506150204 | 16 | 263 | 12.9 | 20.9 | 0.00 | 0.00 | 0.00 | 70 | 1011.2 |
| 20260506145204 | 17 | 233 | 14.5 | 19.3 | 0.00 | 0.00 | 0.00 | 71 | 1011.5 |
| 20260506144203 | 17 | 278 | 12.9 | 17.7 | 0.00 | 0.00 | 0.00 | 70 | 1011.2 |
| 20260506143203 | 17 | 256 | 12.9 | 22.5 | 0.00 | 0.00 | 0.00 | 69 | 1011.3 |
| 20260506142203 | 17 | 235 | 6.4 | 19.3 | 0.00 | 0.00 | 0.00 | 71 | 1011.4 |
| 20260506141203 | 17 | 274 | 4.8 | 20.9 | 0.00 | 0.00 | 0.00 | 70 | 1011.4 |
| 20260506140203 | 17 | 242 | 8.0 | 12.9 | 0.00 | 0.00 | 0.00 | 73 | 1011.3 |
| 20260506135204 | 17 | 253 | 4.8 | 17.7 | 0.00 | 0.00 | 0.00 | 74 | 1010.8 |
| 20260506134203 | 17 | 260 | 12.9 | 22.5 | 0.00 | 0.00 | 0.00 | 73 | 1011.2 |
| 20260506133204 | 17 | 252 | 11.3 | 19.3 | 0.00 | 0.00 | 0.00 | 72 | 1011.4 |
| 20260506132234 | 17 | 263 | 6.4 | 12.9 | 0.00 | 0.00 | 0.00 | 73 | 1011.5 |
| 20260506132203 | 17 | 210 | 6.4 | 19.3 | 0.00 | 0.00 | 0.00 | 72 | 1011.5 |
| 20260506131203 | 16 | 249 | 6.4 | 16.1 | 0.00 | 0.00 | 0.00 | 76 | 1011.6 |
| 20260506130204 | 16 | 235 | 8.0 | 12.9 | 0.00 | 0.00 | 0.00 | 77 | 1011.7 |
| 20260506125204 | 16 | 233 | 6.4 | 9.7 | 0.00 | 0.00 | 0.00 | 78 | 1011.7 |
| 20260506124232 | 16 | 176 | 9.7 | 14.5 | 0.00 | 0.00 | 0.00 | 79 | 1011.7 |
| 20260506124202 | 16 | 242 | 6.4 | 11.3 | 0.00 | 0.00 | 0.00 | 79 | 1011.8 |
| 20260506123235 | 16 | 239 | 4.8 | 9.7 | 0.00 | 0.00 | 0.00 | 79 | 1011.6 |
| 20260506123203 | 16 | 239 | 4.8 | 9.7 | 0.00 | 0.00 | 0.00 | 79 | 1011.6 |
| 20260506122234 | 15 | 232 | 8.0 | 14.5 | 0.00 | 0.00 | 0.00 | 79 | 1011.6 |
| 20260506122203 | 15 | 222 | 8.0 | 14.5 | 0.00 | 0.00 | 0.00 | 80 | 1011.7 |
| 20260506121204 | 15 | 260 | 11.3 | 11.3 | 0.00 | 0.00 | 0.00 | 81 | 1011.8 |
| 20260506120203 | 15 | 294 | 6.4 | 11.3 | 0.00 | 0.00 | 0.00 | 82 | 1011.8 |
| 20260506115203 | 15 | 259 | 8.0 | 16.1 | 0.00 | 0.00 | 0.00 | 84 | 1011.9 |
| 20260506114203 | 15 | 256 | 6.4 | 9.7 | 0.00 | 0.00 | 0.00 | 85 | 1012.0 |
| 20260506113232 | 14 | 278 | 9.7 | 12.9 | 0.00 | 0.00 | 0.00 | 85 | 1012.2 |
| 20260506113202 | 14 | 231 | 4.8 | 12.9 | 0.00 | 0.00 | 0.00 | 85 | 1012.2 |
| 20260506112203 | 14 | 246 | 9.7 | 11.3 | 0.00 | 0.00 | 0.00 | 86 | 1012.2 |
| 20260506111203 | 14 | 250 | 11.3 | 16.1 | 0.00 | 0.00 | 0.00 | 86 | 1012.2 |
| 20260506110203 | 13 | 232 | 9.7 | 17.7 | 0.00 | 0.00 | 0.00 | 86 | 1012.1 |
| 20260506105202 | 14 | 271 | 6.4 | 11.3 | 0.00 | 0.00 | 0.00 | 86 | 1012.0 |
| 20260506104234 | 14 | 243 | 9.7 | 16.1 | 0.00 | 0.00 | 0.00 | 86 | 1011.9 |
| 20260506104203 | 14 | 243 | 9.7 | 16.1 | 0.00 | 0.00 | 0.00 | 86 | 1011.9 |
| 20260506103203 | 14 | 239 | 9.7 | 14.5 | 0.00 | 0.00 | 0.00 | 87 | 1011.8 |
| 20260506102203 | 13 | 253 | 16.1 | 17.7 | 0.00 | 0.00 | 0.00 | 87 | 1011.8 |
| 20260506101203 | 14 | 207 | 9.7 | 16.1 | 0.00 | 0.00 | 0.00 | 87 | 1011.7 |
| 20260506100203 | 13 | 212 | 11.3 | 22.5 | 0.00 | 0.00 | 0.00 | 87 | 1011.7 |
| 20260506095202 | 14 | 252 | 11.3 | 14.5 | 0.00 | 0.00 | 0.00 | 88 | 1011.5 |
| 20260506094203 | 14 | 253 | 8.0 | 14.5 | 0.00 | 0.00 | 0.00 | 88 | 1011.7 |
| 20260506093203 | 14 | 211 | 4.8 | 17.7 | 0.00 | 0.00 | 0.00 | 88 | 1011.6 |
| 20260506092202 | 14 | 238 | 12.9 | 12.9 | 0.00 | 0.00 | 0.00 | 88 | 1011.8 |
| 20260506091204 | 13 | 263 | 12.9 | 19.3 | 0.00 | 0.00 | 0.00 | 88 | 1011.7 |
| 20260506090203 | 14 | 238 | 16.1 | 20.9 | 0.00 | 0.00 | 0.00 | 88 | 1011.7 |
| 20260506085203 | 13 | 228 | 11.3 | 16.1 | 0.00 | 0.00 | 0.00 | 88 | 1011.9 |
| 20260506084202 | 13 | 231 | 3.2 | 12.9 | 0.00 | 0.00 | 0.00 | 88 | 1012.0 |
| 20260506083235 | 14 | 240 | 11.3 | 22.5 | 0.00 | 0.00 | 0.00 | 87 | 1012.1 |
| 20260506083204 | 14 | 240 | 11.3 | 22.5 | 0.00 | 0.00 | 0.00 | 87 | 1012.1 |
| 20260506082203 | 14 | 236 | 14.5 | 22.5 | 0.00 | 0.00 | 0.00 | 87 | 1012.0 |
| 20260506081203 | 13 | 264 | 9.7 | 16.1 | 0.00 | 0.00 | 0.00 | 87 | 1012.1 |